sensor_id;sensor_type;location;lat;lon;timestamp;temperature;humidity
41294;DHT22;27037;52.010;4.446;2023-01-15T00:00:51;8.30;99.90
41294;DHT22;27037;52.010;4.446;2023-01-15T00:03:17;8.30;99.90
41294;DHT22;27037;52.010;4.446;2023-01-15T00:05:43;8.30;99.90
41294;DHT22;27037;52.010;4.446;2023-01-15T00:08:09;8.30;99.90
41294;DHT22;27037;52.010;4.446;2023-01-15T00:10:35;8.30;99.90
41294;DHT22;27037;52.010;4.446;2023-01-15T00:13:00;8.30;99.90
41294;DHT22;27037;52.010;4.446;2023-01-15T00:15:26;8.30;99.90
41294;DHT22;27037;52.010;4.446;2023-01-15T00:17:52;8.30;99.90
41294;DHT22;27037;52.010;4.446;2023-01-15T00:20:18;8.30;99.90
41294;DHT22;27037;52.010;4.446;2023-01-15T00:22:43;8.30;99.90
41294;DHT22;27037;52.010;4.446;2023-01-15T00:25:09;8.30;99.90
41294;DHT22;27037;52.010;4.446;2023-01-15T00:27:54;8.30;99.90
41294;DHT22;27037;52.010;4.446;2023-01-15T00:30:19;8.20;99.90
41294;DHT22;27037;52.010;4.446;2023-01-15T00:32:45;8.20;99.90
41294;DHT22;27037;52.010;4.446;2023-01-15T00:35:16;8.20;99.90
41294;DHT22;27037;52.010;4.446;2023-01-15T00:37:42;8.20;99.90
41294;DHT22;27037;52.010;4.446;2023-01-15T00:40:08;8.20;99.90
41294;DHT22;27037;52.010;4.446;2023-01-15T00:42:34;8.20;99.90
41294;DHT22;27037;52.010;4.446;2023-01-15T00:45:00;8.20;99.90
41294;DHT22;27037;52.010;4.446;2023-01-15T00:47:32;8.10;99.90
41294;DHT22;27037;52.010;4.446;2023-01-15T00:49:58;8.10;99.90
41294;DHT22;27037;52.010;4.446;2023-01-15T00:52:23;8.10;99.90
41294;DHT22;27037;52.010;4.446;2023-01-15T00:54:49;8.10;99.90
41294;DHT22;27037;52.010;4.446;2023-01-15T00:57:15;8.10;99.90
41294;DHT22;27037;52.010;4.446;2023-01-15T00:59:40;8.10;99.90
41294;DHT22;27037;52.010;4.446;2023-01-15T01:02:06;8.10;99.90
41294;DHT22;27037;52.010;4.446;2023-01-15T01:04:31;8.10;99.90
41294;DHT22;27037;52.010;4.446;2023-01-15T01:06:57;8.10;99.90
41294;DHT22;27037;52.010;4.446;2023-01-15T01:09:23;8.10;99.90
41294;DHT22;27037;52.010;4.446;2023-01-15T01:11:48;8.00;99.90
41294;DHT22;27037;52.010;4.446;2023-01-15T01:14:14;8.00;99.90
41294;DHT22;27037;52.010;4.446;2023-01-15T01:16:40;8.00;99.90
41294;DHT22;27037;52.010;4.446;2023-01-15T01:19:07;8.00;99.90
41294;DHT22;27037;52.010;4.446;2023-01-15T01:21:35;8.00;99.90
41294;DHT22;27037;52.010;4.446;2023-01-15T01:24:01;8.00;99.90
41294;DHT22;27037;52.010;4.446;2023-01-15T01:26:28;8.10;99.90
41294;DHT22;27037;52.010;4.446;2023-01-15T01:28:55;8.00;99.90
41294;DHT22;27037;52.010;4.446;2023-01-15T01:31:22;8.00;99.90
41294;DHT22;27037;52.010;4.446;2023-01-15T01:33:49;8.00;99.90
41294;DHT22;27037;52.010;4.446;2023-01-15T01:36:15;8.00;99.90
41294;DHT22;27037;52.010;4.446;2023-01-15T01:38:41;8.00;99.90
41294;DHT22;27037;52.010;4.446;2023-01-15T01:41:06;8.00;99.90
41294;DHT22;27037;52.010;4.446;2023-01-15T01:43:51;8.00;99.90
41294;DHT22;27037;52.010;4.446;2023-01-15T01:46:17;8.00;99.90
41294;DHT22;27037;52.010;4.446;2023-01-15T01:48:43;8.00;99.90
41294;DHT22;27037;52.010;4.446;2023-01-15T01:51:10;8.00;99.90
41294;DHT22;27037;52.010;4.446;2023-01-15T01:53:36;8.00;99.90
41294;DHT22;27037;52.010;4.446;2023-01-15T01:56:03;8.00;99.90
41294;DHT22;27037;52.010;4.446;2023-01-15T01:58:31;8.00;99.90
41294;DHT22;27037;52.010;4.446;2023-01-15T02:00:58;8.00;99.90
41294;DHT22;27037;52.010;4.446;2023-01-15T02:03:30;8.00;99.90
41294;DHT22;27037;52.010;4.446;2023-01-15T02:05:59;8.00;99.90
41294;DHT22;27037;52.010;4.446;2023-01-15T02:08:25;8.00;99.90
41294;DHT22;27037;52.010;4.446;2023-01-15T02:10:53;8.00;99.90
41294;DHT22;27037;52.010;4.446;2023-01-15T02:13:36;8.00;99.90
41294;DHT22;27037;52.010;4.446;2023-01-15T02:21:49;8.00;99.90
41294;DHT22;27037;52.010;4.446;2023-01-15T02:24:30;8.00;99.90
41294;DHT22;27037;52.010;4.446;2023-01-15T02:29:48;8.00;99.90
41294;DHT22;27037;52.010;4.446;2023-01-15T02:32:26;8.00;99.90
41294;DHT22;27037;52.010;4.446;2023-01-15T02:34:56;7.90;99.90
41294;DHT22;27037;52.010;4.446;2023-01-15T02:37:29;7.90;99.90
41294;DHT22;27037;52.010;4.446;2023-01-15T02:39:56;7.90;99.90
41294;DHT22;27037;52.010;4.446;2023-01-15T02:42:25;7.90;99.90
41294;DHT22;27037;52.010;4.446;2023-01-15T02:44:53;7.90;99.90
41294;DHT22;27037;52.010;4.446;2023-01-15T02:47:25;8.00;99.90
41294;DHT22;27037;52.010;4.446;2023-01-15T02:49:54;7.90;99.90
41294;DHT22;27037;52.010;4.446;2023-01-15T02:52:34;8.00;99.90
41294;DHT22;27037;52.010;4.446;2023-01-15T02:55:15;7.90;99.90
41294;DHT22;27037;52.010;4.446;2023-01-15T02:57:42;7.90;99.90
41294;DHT22;27037;52.010;4.446;2023-01-15T03:00:12;7.90;99.90
41294;DHT22;27037;52.010;4.446;2023-01-15T03:02:52;7.90;99.90
41294;DHT22;27037;52.010;4.446;2023-01-15T03:05:26;7.90;99.90
41294;DHT22;27037;52.010;4.446;2023-01-15T03:07:59;7.90;99.90
41294;DHT22;27037;52.010;4.446;2023-01-15T03:13:34;7.90;99.90
41294;DHT22;27037;52.010;4.446;2023-01-15T03:16:20;7.80;99.90
41294;DHT22;27037;52.010;4.446;2023-01-15T03:25:20;7.80;99.90
41294;DHT22;27037;52.010;4.446;2023-01-15T03:27:38;7.80;99.90
41294;DHT22;27037;52.010;4.446;2023-01-15T03:30:13;7.80;99.90
41294;DHT22;27037;52.010;4.446;2023-01-15T03:32:39;7.80;99.90
41294;DHT22;27037;52.010;4.446;2023-01-15T03:35:06;7.80;99.90
41294;DHT22;27037;52.010;4.446;2023-01-15T03:37:32;7.80;99.90
41294;DHT22;27037;52.010;4.446;2023-01-15T03:39:58;7.80;99.90
41294;DHT22;27037;52.010;4.446;2023-01-15T03:45:17;7.80;99.90
41294;DHT22;27037;52.010;4.446;2023-01-15T03:56:05;7.80;99.90
41294;DHT22;27037;52.010;4.446;2023-01-15T04:01:10;7.70;99.90
41294;DHT22;27037;52.010;4.446;2023-01-15T04:03:37;7.70;99.90
41294;DHT22;27037;52.010;4.446;2023-01-15T04:06:04;7.70;99.90
41294;DHT22;27037;52.010;4.446;2023-01-15T04:08:34;7.80;99.90
41294;DHT22;27037;52.010;4.446;2023-01-15T04:11:01;7.80;99.90
41294;DHT22;27037;52.010;4.446;2023-01-15T04:13:28;7.70;99.90
41294;DHT22;27037;52.010;4.446;2023-01-15T04:15:54;7.70;99.90
41294;DHT22;27037;52.010;4.446;2023-01-15T04:18:20;7.70;99.90
41294;DHT22;27037;52.010;4.446;2023-01-15T04:20:46;7.70;99.90
41294;DHT22;27037;52.010;4.446;2023-01-15T04:23:12;7.80;99.90
41294;DHT22;27037;52.010;4.446;2023-01-15T04:25:38;7.70;99.90
41294;DHT22;27037;52.010;4.446;2023-01-15T04:28:06;7.70;99.90
41294;DHT22;27037;52.010;4.446;2023-01-15T04:30:32;7.70;99.90
41294;DHT22;27037;52.010;4.446;2023-01-15T04:32:58;7.70;99.90
41294;DHT22;27037;52.010;4.446;2023-01-15T04:35:24;7.70;99.90
41294;DHT22;27037;52.010;4.446;2023-01-15T04:37:54;7.70;99.90
41294;DHT22;27037;52.010;4.446;2023-01-15T04:40:20;7.70;99.90
41294;DHT22;27037;52.010;4.446;2023-01-15T04:43:04;7.70;99.90
41294;DHT22;27037;52.010;4.446;2023-01-15T04:45:48;7.70;99.90
41294;DHT22;27037;52.010;4.446;2023-01-15T04:48:14;7.70;99.90
41294;DHT22;27037;52.010;4.446;2023-01-15T04:50:39;7.70;99.90
41294;DHT22;27037;52.010;4.446;2023-01-15T04:53:05;7.70;99.90
41294;DHT22;27037;52.010;4.446;2023-01-15T04:55:31;7.70;99.90
41294;DHT22;27037;52.010;4.446;2023-01-15T04:57:56;7.80;99.90
41294;DHT22;27037;52.010;4.446;2023-01-15T05:00:22;7.80;99.90
41294;DHT22;27037;52.010;4.446;2023-01-15T05:02:48;7.70;99.90
41294;DHT22;27037;52.010;4.446;2023-01-15T05:05:14;7.70;99.90
41294;DHT22;27037;52.010;4.446;2023-01-15T05:07:40;7.70;99.90
41294;DHT22;27037;52.010;4.446;2023-01-15T05:10:06;7.70;99.90
41294;DHT22;27037;52.010;4.446;2023-01-15T05:12:32;7.60;99.90
41294;DHT22;27037;52.010;4.446;2023-01-15T05:14:58;7.70;99.90
41294;DHT22;27037;52.010;4.446;2023-01-15T05:17:23;7.60;99.90
41294;DHT22;27037;52.010;4.446;2023-01-15T05:19:49;7.60;99.90
41294;DHT22;27037;52.010;4.446;2023-01-15T05:22:14;7.60;99.90
41294;DHT22;27037;52.010;4.446;2023-01-15T05:24:40;7.60;99.90
41294;DHT22;27037;52.010;4.446;2023-01-15T05:27:06;7.60;99.90
41294;DHT22;27037;52.010;4.446;2023-01-15T05:29:31;7.60;99.90
41294;DHT22;27037;52.010;4.446;2023-01-15T05:31:57;7.50;99.90
41294;DHT22;27037;52.010;4.446;2023-01-15T05:34:23;7.50;99.90
41294;DHT22;27037;52.010;4.446;2023-01-15T05:36:48;7.50;99.90
41294;DHT22;27037;52.010;4.446;2023-01-15T05:39:14;7.50;99.90
41294;DHT22;27037;52.010;4.446;2023-01-15T05:41:40;7.50;99.90
41294;DHT22;27037;52.010;4.446;2023-01-15T05:44:26;7.50;99.90
41294;DHT22;27037;52.010;4.446;2023-01-15T05:46:54;7.40;99.90
41294;DHT22;27037;52.010;4.446;2023-01-15T05:49:22;7.40;99.90
41294;DHT22;27037;52.010;4.446;2023-01-15T05:51:49;7.40;99.90
41294;DHT22;27037;52.010;4.446;2023-01-15T05:54:18;7.40;99.90
41294;DHT22;27037;52.010;4.446;2023-01-15T05:56:44;7.40;99.90
41294;DHT22;27037;52.010;4.446;2023-01-15T05:59:10;7.30;99.90
41294;DHT22;27037;52.010;4.446;2023-01-15T06:01:36;7.30;99.90
41294;DHT22;27037;52.010;4.446;2023-01-15T06:04:04;7.30;99.90
41294;DHT22;27037;52.010;4.446;2023-01-15T06:06:31;7.30;99.90
41294;DHT22;27037;52.010;4.446;2023-01-15T06:08:57;7.30;99.90
41294;DHT22;27037;52.010;4.446;2023-01-15T06:11:23;7.30;99.90
41294;DHT22;27037;52.010;4.446;2023-01-15T06:13:48;7.30;99.90
41294;DHT22;27037;52.010;4.446;2023-01-15T06:16:14;7.20;99.90
41294;DHT22;27037;52.010;4.446;2023-01-15T06:18:41;7.30;99.90
41294;DHT22;27037;52.010;4.446;2023-01-15T06:21:08;7.30;99.90
41294;DHT22;27037;52.010;4.446;2023-01-15T06:23:35;7.30;99.90
41294;DHT22;27037;52.010;4.446;2023-01-15T06:26:03;7.30;99.90
41294;DHT22;27037;52.010;4.446;2023-01-15T06:28:29;7.30;99.90
41294;DHT22;27037;52.010;4.446;2023-01-15T06:30:55;7.30;99.90
41294;DHT22;27037;52.010;4.446;2023-01-15T06:33:21;7.30;99.90
41294;DHT22;27037;52.010;4.446;2023-01-15T06:35:46;7.30;99.90
41294;DHT22;27037;52.010;4.446;2023-01-15T06:38:12;7.30;99.90
41294;DHT22;27037;52.010;4.446;2023-01-15T06:40:38;7.30;99.90
41294;DHT22;27037;52.010;4.446;2023-01-15T06:43:04;7.30;99.90
41294;DHT22;27037;52.010;4.446;2023-01-15T06:45:48;7.20;99.90
41294;DHT22;27037;52.010;4.446;2023-01-15T06:48:32;7.20;99.90
41294;DHT22;27037;52.010;4.446;2023-01-15T06:50:58;7.20;99.90
41294;DHT22;27037;52.010;4.446;2023-01-15T06:53:24;7.20;99.90
41294;DHT22;27037;52.010;4.446;2023-01-15T06:55:49;7.20;99.90
41294;DHT22;27037;52.010;4.446;2023-01-15T06:58:15;7.10;99.90
41294;DHT22;27037;52.010;4.446;2023-01-15T07:00:41;7.20;99.90
41294;DHT22;27037;52.010;4.446;2023-01-15T07:03:08;7.10;99.90
41294;DHT22;27037;52.010;4.446;2023-01-15T07:05:37;7.10;99.90
41294;DHT22;27037;52.010;4.446;2023-01-15T07:08:03;7.10;99.90
41294;DHT22;27037;52.010;4.446;2023-01-15T07:10:29;7.10;99.90
41294;DHT22;27037;52.010;4.446;2023-01-15T07:12:54;7.00;99.90
41294;DHT22;27037;52.010;4.446;2023-01-15T07:15:20;7.00;99.90
41294;DHT22;27037;52.010;4.446;2023-01-15T07:17:46;7.10;99.90
41294;DHT22;27037;52.010;4.446;2023-01-15T07:20:12;7.10;99.90
41294;DHT22;27037;52.010;4.446;2023-01-15T07:22:37;7.10;99.90
41294;DHT22;27037;52.010;4.446;2023-01-15T07:25:04;7.10;99.90
41294;DHT22;27037;52.010;4.446;2023-01-15T07:27:29;7.10;99.90
41294;DHT22;27037;52.010;4.446;2023-01-15T07:29:55;7.10;99.90
41294;DHT22;27037;52.010;4.446;2023-01-15T07:32:20;7.10;99.90
41294;DHT22;27037;52.010;4.446;2023-01-15T07:34:46;7.20;99.90
41294;DHT22;27037;52.010;4.446;2023-01-15T07:37:12;7.20;99.90
41294;DHT22;27037;52.010;4.446;2023-01-15T07:39:38;7.10;99.90
41294;DHT22;27037;52.010;4.446;2023-01-15T07:42:03;7.20;99.90
41294;DHT22;27037;52.010;4.446;2023-01-15T07:44:47;7.20;99.90
41294;DHT22;27037;52.010;4.446;2023-01-15T07:47:31;7.20;99.90
41294;DHT22;27037;52.010;4.446;2023-01-15T07:50:19;7.20;99.90
41294;DHT22;27037;52.010;4.446;2023-01-15T07:52:45;7.10;99.90
41294;DHT22;27037;52.010;4.446;2023-01-15T07:55:11;7.10;99.90
41294;DHT22;27037;52.010;4.446;2023-01-15T07:57:38;7.20;99.90
41294;DHT22;27037;52.010;4.446;2023-01-15T08:00:06;7.20;99.90
41294;DHT22;27037;52.010;4.446;2023-01-15T08:02:32;7.20;99.90
41294;DHT22;27037;52.010;4.446;2023-01-15T08:04:58;7.20;99.90
41294;DHT22;27037;52.010;4.446;2023-01-15T08:07:24;7.20;99.90
41294;DHT22;27037;52.010;4.446;2023-01-15T08:09:49;7.30;99.90
41294;DHT22;27037;52.010;4.446;2023-01-15T08:12:15;7.40;99.90
41294;DHT22;27037;52.010;4.446;2023-01-15T08:14:59;7.40;99.90
41294;DHT22;27037;52.010;4.446;2023-01-15T08:17:45;7.40;99.90
41294;DHT22;27037;52.010;4.446;2023-01-15T08:20:17;7.50;99.90
41294;DHT22;27037;52.010;4.446;2023-01-15T08:22:44;7.50;99.90
41294;DHT22;27037;52.010;4.446;2023-01-15T08:25:12;7.50;99.90
41294;DHT22;27037;52.010;4.446;2023-01-15T08:27:38;7.50;99.90
41294;DHT22;27037;52.010;4.446;2023-01-15T08:30:06;7.50;99.90
41294;DHT22;27037;52.010;4.446;2023-01-15T08:32:32;7.50;99.90
41294;DHT22;27037;52.010;4.446;2023-01-15T08:34:58;7.50;99.90
41294;DHT22;27037;52.010;4.446;2023-01-15T08:37:24;7.50;99.90
41294;DHT22;27037;52.010;4.446;2023-01-15T08:39:49;7.50;99.90
41294;DHT22;27037;52.010;4.446;2023-01-15T08:42:18;7.50;99.90
41294;DHT22;27037;52.010;4.446;2023-01-15T08:44:43;7.50;99.90
41294;DHT22;27037;52.010;4.446;2023-01-15T08:47:09;7.50;99.90
41294;DHT22;27037;52.010;4.446;2023-01-15T08:49:35;7.50;99.90
41294;DHT22;27037;52.010;4.446;2023-01-15T08:52:00;7.50;99.90
41294;DHT22;27037;52.010;4.446;2023-01-15T08:54:26;7.50;99.90
41294;DHT22;27037;52.010;4.446;2023-01-15T08:56:52;7.50;99.90
41294;DHT22;27037;52.010;4.446;2023-01-15T08:59:17;7.50;99.90
41294;DHT22;27037;52.010;4.446;2023-01-15T09:01:43;7.50;99.90
41294;DHT22;27037;52.010;4.446;2023-01-15T09:04:14;7.50;99.90
41294;DHT22;27037;52.010;4.446;2023-01-15T09:06:40;7.60;99.90
41294;DHT22;27037;52.010;4.446;2023-01-15T09:09:06;7.50;99.90
41294;DHT22;27037;52.010;4.446;2023-01-15T09:11:32;7.60;99.90
41294;DHT22;27037;52.010;4.446;2023-01-15T09:13:58;7.60;99.90
41294;DHT22;27037;52.010;4.446;2023-01-15T09:16:24;7.60;99.90
41294;DHT22;27037;52.010;4.446;2023-01-15T09:18:52;7.60;99.90
41294;DHT22;27037;52.010;4.446;2023-01-15T09:21:18;7.60;99.90
41294;DHT22;27037;52.010;4.446;2023-01-15T09:23:44;7.60;99.90
41294;DHT22;27037;52.010;4.446;2023-01-15T09:28:53;7.70;99.90
41294;DHT22;27037;52.010;4.446;2023-01-15T09:31:19;7.70;99.90
41294;DHT22;27037;52.010;4.446;2023-01-15T09:33:45;7.70;99.90
41294;DHT22;27037;52.010;4.446;2023-01-15T09:38:49;7.70;99.90
41294;DHT22;27037;52.010;4.446;2023-01-15T09:41:15;7.70;99.90
41294;DHT22;27037;52.010;4.446;2023-01-15T09:46:49;7.80;99.90
41294;DHT22;27037;52.010;4.446;2023-01-15T09:49:50;7.80;99.90
41294;DHT22;27037;52.010;4.446;2023-01-15T09:55:26;7.80;99.90
41294;DHT22;27037;52.010;4.446;2023-01-15T09:57:55;7.90;99.90
41294;DHT22;27037;52.010;4.446;2023-01-15T10:00:28;8.00;99.90
41294;DHT22;27037;52.010;4.446;2023-01-15T10:05:45;8.20;99.90
41294;DHT22;27037;52.010;4.446;2023-01-15T10:08:20;8.20;99.90
41294;DHT22;27037;52.010;4.446;2023-01-15T10:13:59;8.30;99.90
41294;DHT22;27037;52.010;4.446;2023-01-15T10:16:28;8.30;99.90
41294;DHT22;27037;52.010;4.446;2023-01-15T10:18:55;8.30;99.90
41294;DHT22;27037;52.010;4.446;2023-01-15T10:26:53;8.40;99.90
41294;DHT22;27037;52.010;4.446;2023-01-15T10:37:05;8.30;99.90
41294;DHT22;27037;52.010;4.446;2023-01-15T10:47:40;8.30;99.90
41294;DHT22;27037;52.010;4.446;2023-01-15T10:50:21;8.40;99.90
41294;DHT22;27037;52.010;4.446;2023-01-15T10:53:07;8.40;99.90
41294;DHT22;27037;52.010;4.446;2023-01-15T11:01:07;8.40;99.90
41294;DHT22;27037;52.010;4.446;2023-01-15T11:03:37;8.40;99.90
41294;DHT22;27037;52.010;4.446;2023-01-15T11:06:06;8.40;99.90
41294;DHT22;27037;52.010;4.446;2023-01-15T11:08:36;8.50;99.90
41294;DHT22;27037;52.010;4.446;2023-01-15T11:11:39;8.60;99.90
41294;DHT22;27037;52.010;4.446;2023-01-15T11:17:19;8.60;99.90
41294;DHT22;27037;52.010;4.446;2023-01-15T11:20:15;8.70;99.90
41294;DHT22;27037;52.010;4.446;2023-01-15T11:22:42;8.70;99.90
41294;DHT22;27037;52.010;4.446;2023-01-15T11:25:09;8.70;99.90
41294;DHT22;27037;52.010;4.446;2023-01-15T11:27:36;8.70;99.90
41294;DHT22;27037;52.010;4.446;2023-01-15T11:30:04;8.80;99.90
41294;DHT22;27037;52.010;4.446;2023-01-15T11:32:35;8.80;99.90
41294;DHT22;27037;52.010;4.446;2023-01-15T11:37:29;8.80;99.90
41294;DHT22;27037;52.010;4.446;2023-01-15T11:39:59;8.80;99.90
41294;DHT22;27037;52.010;4.446;2023-01-15T11:42:32;8.80;99.90
41294;DHT22;27037;52.010;4.446;2023-01-15T11:45:20;8.80;99.90
41294;DHT22;27037;52.010;4.446;2023-01-15T11:48:22;8.70;99.90
41294;DHT22;27037;52.010;4.446;2023-01-15T11:51:14;8.70;99.90
41294;DHT22;27037;52.010;4.446;2023-01-15T11:53:42;8.60;99.90
41294;DHT22;27037;52.010;4.446;2023-01-15T11:56:14;8.60;99.90
41294;DHT22;27037;52.010;4.446;2023-01-15T11:58:45;8.60;99.90
41294;DHT22;27037;52.010;4.446;2023-01-15T12:01:27;8.60;99.90
41294;DHT22;27037;52.010;4.446;2023-01-15T12:04:18;8.60;99.90
41294;DHT22;27037;52.010;4.446;2023-01-15T12:06:43;8.60;99.90
41294;DHT22;27037;52.010;4.446;2023-01-15T12:19:36;8.60;99.90
41294;DHT22;27037;52.010;4.446;2023-01-15T12:30:35;8.60;99.90
41294;DHT22;27037;52.010;4.446;2023-01-15T12:35:59;8.50;99.90
41294;DHT22;27037;52.010;4.446;2023-01-15T12:38:52;8.50;99.90
41294;DHT22;27037;52.010;4.446;2023-01-15T12:41:40;8.50;99.90
41294;DHT22;27037;52.010;4.446;2023-01-15T12:44:44;8.60;99.90
41294;DHT22;27037;52.010;4.446;2023-01-15T12:47:40;8.60;99.90
41294;DHT22;27037;52.010;4.446;2023-01-15T12:52:42;8.80;99.90
41294;DHT22;27037;52.010;4.446;2023-01-15T12:55:21;8.90;99.90
41294;DHT22;27037;52.010;4.446;2023-01-15T12:57:50;8.90;99.90
41294;DHT22;27037;52.010;4.446;2023-01-15T13:00:23;9.00;99.90
41294;DHT22;27037;52.010;4.446;2023-01-15T13:05:30;9.00;99.90
41294;DHT22;27037;52.010;4.446;2023-01-15T13:08:00;8.90;99.90
41294;DHT22;27037;52.010;4.446;2023-01-15T13:10:29;8.90;99.90
41294;DHT22;27037;52.010;4.446;2023-01-15T13:13:17;8.90;99.90
41294;DHT22;27037;52.010;4.446;2023-01-15T13:21:30;8.80;99.90
41294;DHT22;27037;52.010;4.446;2023-01-15T13:24:53;8.80;99.90
41294;DHT22;27037;52.010;4.446;2023-01-15T13:29:57;8.80;99.90
41294;DHT22;27037;52.010;4.446;2023-01-15T13:32:42;8.80;99.90
41294;DHT22;27037;52.010;4.446;2023-01-15T13:35:29;8.80;99.90
41294;DHT22;27037;52.010;4.446;2023-01-15T13:37:59;8.90;99.90
41294;DHT22;27037;52.010;4.446;2023-01-15T13:43:04;8.80;99.90
41294;DHT22;27037;52.010;4.446;2023-01-15T13:45:41;8.80;99.90
41294;DHT22;27037;52.010;4.446;2023-01-15T13:50:52;8.70;99.90
41294;DHT22;27037;52.010;4.446;2023-01-15T13:55:55;8.70;99.90
41294;DHT22;27037;52.010;4.446;2023-01-15T13:58:29;8.70;99.90
41294;DHT22;27037;52.010;4.446;2023-01-15T14:01:04;8.70;99.90
41294;DHT22;27037;52.010;4.446;2023-01-15T14:03:34;8.70;99.90
41294;DHT22;27037;52.010;4.446;2023-01-15T14:06:06;8.60;99.90
41294;DHT22;27037;52.010;4.446;2023-01-15T14:08:45;8.60;99.90
41294;DHT22;27037;52.010;4.446;2023-01-15T14:22:55;8.50;99.90
41294;DHT22;27037;52.010;4.446;2023-01-15T14:39:47;8.40;99.90
41294;DHT22;27037;52.010;4.446;2023-01-15T14:42:35;8.40;99.90
41294;DHT22;27037;52.010;4.446;2023-01-15T14:45:27;8.40;99.90
41294;DHT22;27037;52.010;4.446;2023-01-15T14:47:58;8.40;99.90
41294;DHT22;27037;52.010;4.446;2023-01-15T14:55:47;8.40;99.90
41294;DHT22;27037;52.010;4.446;2023-01-15T15:00:49;8.40;99.90
41294;DHT22;27037;52.010;4.446;2023-01-15T15:03:20;8.40;99.90
41294;DHT22;27037;52.010;4.446;2023-01-15T15:05:46;8.40;99.90
41294;DHT22;27037;52.010;4.446;2023-01-15T15:08:14;8.40;99.90
41294;DHT22;27037;52.010;4.446;2023-01-15T15:10:43;8.40;99.90
41294;DHT22;27037;52.010;4.446;2023-01-15T15:16:10;8.40;99.90
41294;DHT22;27037;52.010;4.446;2023-01-15T15:18:41;8.40;99.90
41294;DHT22;27037;52.010;4.446;2023-01-15T15:21:20;8.30;99.90
41294;DHT22;27037;52.010;4.446;2023-01-15T15:24:06;8.30;99.90
41294;DHT22;27037;52.010;4.446;2023-01-15T15:26:37;8.30;99.90
41294;DHT22;27037;52.010;4.446;2023-01-15T15:29:10;8.20;99.90
41294;DHT22;27037;52.010;4.446;2023-01-15T15:31:44;8.20;99.90
41294;DHT22;27037;52.010;4.446;2023-01-15T15:34:32;8.20;99.90
41294;DHT22;27037;52.010;4.446;2023-01-15T15:37:04;8.20;99.90
41294;DHT22;27037;52.010;4.446;2023-01-15T15:39:34;8.20;99.90
41294;DHT22;27037;52.010;4.446;2023-01-15T15:42:12;8.20;99.90
41294;DHT22;27037;52.010;4.446;2023-01-15T15:44:59;8.20;99.90
41294;DHT22;27037;52.010;4.446;2023-01-15T15:47:43;8.20;99.90
41294;DHT22;27037;52.010;4.446;2023-01-15T15:50:33;8.20;99.90
41294;DHT22;27037;52.010;4.446;2023-01-15T15:52:59;8.20;99.90
41294;DHT22;27037;52.010;4.446;2023-01-15T15:55:40;8.20;99.90
41294;DHT22;27037;52.010;4.446;2023-01-15T15:58:08;8.20;99.90
41294;DHT22;27037;52.010;4.446;2023-01-15T16:00:40;8.20;99.90
41294;DHT22;27037;52.010;4.446;2023-01-15T16:03:20;8.20;99.90
41294;DHT22;27037;52.010;4.446;2023-01-15T16:06:01;8.20;99.90
41294;DHT22;27037;52.010;4.446;2023-01-15T16:08:29;8.20;99.90
41294;DHT22;27037;52.010;4.446;2023-01-15T16:11:07;8.20;99.90
41294;DHT22;27037;52.010;4.446;2023-01-15T16:13:40;8.10;99.90
41294;DHT22;27037;52.010;4.446;2023-01-15T16:16:08;8.10;99.90
41294;DHT22;27037;52.010;4.446;2023-01-15T16:21:10;7.90;99.90
41294;DHT22;27037;52.010;4.446;2023-01-15T16:23:40;7.80;99.90
41294;DHT22;27037;52.010;4.446;2023-01-15T16:26:15;7.80;99.90
41294;DHT22;27037;52.010;4.446;2023-01-15T16:29:14;7.70;99.90
41294;DHT22;27037;52.010;4.446;2023-01-15T16:31:36;7.60;99.90
41294;DHT22;27037;52.010;4.446;2023-01-15T16:34:03;7.50;99.90
41294;DHT22;27037;52.010;4.446;2023-01-15T16:36:37;7.50;99.90
41294;DHT22;27037;52.010;4.446;2023-01-15T16:39:04;7.40;99.90
41294;DHT22;27037;52.010;4.446;2023-01-15T16:41:37;7.20;99.90
41294;DHT22;27037;52.010;4.446;2023-01-15T16:44:06;7.20;99.90
41294;DHT22;27037;52.010;4.446;2023-01-15T16:46:34;7.10;99.90
41294;DHT22;27037;52.010;4.446;2023-01-15T16:49:23;7.10;99.90
41294;DHT22;27037;52.010;4.446;2023-01-15T16:51:50;7.10;99.90
41294;DHT22;27037;52.010;4.446;2023-01-15T16:57:01;7.00;99.90
41294;DHT22;27037;52.010;4.446;2023-01-15T17:02:13;6.90;99.90
41294;DHT22;27037;52.010;4.446;2023-01-15T17:04:41;6.90;99.90
41294;DHT22;27037;52.010;4.446;2023-01-15T17:07:17;6.90;99.90
41294;DHT22;27037;52.010;4.446;2023-01-15T17:09:52;6.80;99.90
41294;DHT22;27037;52.010;4.446;2023-01-15T17:12:33;6.80;99.90
41294;DHT22;27037;52.010;4.446;2023-01-15T17:17:47;6.80;99.90
41294;DHT22;27037;52.010;4.446;2023-01-15T17:20:14;6.80;99.90
41294;DHT22;27037;52.010;4.446;2023-01-15T17:22:42;6.70;99.90
41294;DHT22;27037;52.010;4.446;2023-01-15T17:27:56;6.70;99.90
41294;DHT22;27037;52.010;4.446;2023-01-15T17:30:24;6.60;99.90
41294;DHT22;27037;52.010;4.446;2023-01-15T17:33:05;6.60;99.90
41294;DHT22;27037;52.010;4.446;2023-01-15T17:35:36;6.60;99.90
41294;DHT22;27037;52.010;4.446;2023-01-15T17:38:03;6.60;99.90
41294;DHT22;27037;52.010;4.446;2023-01-15T17:40:29;6.50;99.90
41294;DHT22;27037;52.010;4.446;2023-01-15T17:42:57;6.50;99.90
41294;DHT22;27037;52.010;4.446;2023-01-15T17:45:25;6.50;99.90
41294;DHT22;27037;52.010;4.446;2023-01-15T17:47:52;6.50;99.90
41294;DHT22;27037;52.010;4.446;2023-01-15T17:50:17;6.50;99.90
41294;DHT22;27037;52.010;4.446;2023-01-15T17:52:44;6.40;99.90
41294;DHT22;27037;52.010;4.446;2023-01-15T17:55:12;6.50;99.90
41294;DHT22;27037;52.010;4.446;2023-01-15T17:57:56;6.50;99.90
41294;DHT22;27037;52.010;4.446;2023-01-15T18:00:40;6.40;99.90
41294;DHT22;27037;52.010;4.446;2023-01-15T18:03:25;6.40;99.90
41294;DHT22;27037;52.010;4.446;2023-01-15T18:06:11;6.40;99.90
41294;DHT22;27037;52.010;4.446;2023-01-15T18:08:38;6.40;99.90
41294;DHT22;27037;52.010;4.446;2023-01-15T18:11:05;6.40;99.90
41294;DHT22;27037;52.010;4.446;2023-01-15T18:13:30;6.40;99.90
41294;DHT22;27037;52.010;4.446;2023-01-15T18:15:56;6.30;99.90
41294;DHT22;27037;52.010;4.446;2023-01-15T18:18:22;6.30;99.90
41294;DHT22;27037;52.010;4.446;2023-01-15T18:20:47;6.30;99.90
41294;DHT22;27037;52.010;4.446;2023-01-15T18:23:13;6.30;99.90
41294;DHT22;27037;52.010;4.446;2023-01-15T18:25:39;6.30;99.90
41294;DHT22;27037;52.010;4.446;2023-01-15T18:28:11;6.30;99.90
41294;DHT22;27037;52.010;4.446;2023-01-15T18:30:36;6.20;99.90
41294;DHT22;27037;52.010;4.446;2023-01-15T18:33:03;6.20;99.90
41294;DHT22;27037;52.010;4.446;2023-01-15T18:35:28;6.20;99.90
41294;DHT22;27037;52.010;4.446;2023-01-15T18:37:54;6.20;99.90
41294;DHT22;27037;52.010;4.446;2023-01-15T18:40:20;6.10;99.90
41294;DHT22;27037;52.010;4.446;2023-01-15T18:42:51;6.10;99.90
41294;DHT22;27037;52.010;4.446;2023-01-15T18:45:35;6.10;99.90
41294;DHT22;27037;52.010;4.446;2023-01-15T18:48:19;6.10;99.90
41294;DHT22;27037;52.010;4.446;2023-01-15T18:50:45;6.10;99.90
41294;DHT22;27037;52.010;4.446;2023-01-15T18:53:13;6.00;99.90
41294;DHT22;27037;52.010;4.446;2023-01-15T18:55:39;6.00;99.90
41294;DHT22;27037;52.010;4.446;2023-01-15T18:58:04;6.00;99.90
41294;DHT22;27037;52.010;4.446;2023-01-15T19:00:30;6.00;99.90